Spacecraft Satellite overpass computed based on SGP4 code. Updated every day at 2:25 LT
Spacecraft : Terra    
         GMT                             Satellite      Satellite     Solar          Solar         Scat ang       
  year-mo-da hr:mn:sc    elevation     azimuth    elevation   azimuth    (bk=180)     
  2018-08-17 09:26:51     66.4            102.3          50.8           152.5         150.7
  2018-08-17 11:04:10     20.0            301.1          53.0           191.2          94.7
  2018-08-17 18:59:51     19.3             58.4         -10.5           306.5        -999.0
  2018-08-17 20:37:08     69.7            257.3         -21.1           328.6        -999.0
Spacecraft : Aqua    
         GMT                             Satellite      Satellite     Solar          Solar         Scat ang       
  year-mo-da hr:mn:sc    elevation     azimuth    elevation   azimuth    (bk=180)     
  2018-08-17 00:01:10     35.5             96.6         -23.4            22.5        -999.0
  2018-08-17 01:38:53     33.7            295.0         -14.6            46.0        -999.0
  2018-08-17 09:34:42     11.4             52.1          51.4           155.4          90.8
  2018-08-17 11:11:34     64.5             71.5          52.8           194.1         125.4
  2018-08-17 12:49:44     18.5            269.9          44.5           228.4         136.8
  2018-08-17 23:05:35     12.0             86.0         -26.1             7.9        -999.0
Spacecraft : CALIPSO    
         GMT                             Satellite      Satellite     Solar          Solar         Scat ang       
  year-mo-da hr:mn:sc    elevation     azimuth    elevation   azimuth    (bk=180)     
  2018-08-17 00:02:17     30.4             95.1         -23.3            22.8        -999.0
  2018-08-17 01:40:07     38.8            293.5         -14.4            46.2        -999.0
  2018-08-17 11:12:46     55.1             70.0          52.7           194.6         117.2
  2018-08-17 12:50:51     21.5            268.4          44.3           228.8         140.2
Spacecraft : CloudSat    
         GMT                             Satellite      Satellite     Solar          Solar         Scat ang       
  year-mo-da hr:mn:sc    elevation     azimuth    elevation   azimuth    (bk=180)     
  2018-08-17 00:42:54     64.1            101.9         -20.3            33.0        -999.0
  2018-08-17 02:20:00     20.3            300.5          -9.5            54.8        -999.0
  2018-08-17 10:14:29     17.5             57.7          53.2           171.0          90.9
  2018-08-17 11:51:28     75.8            256.7          50.4           209.3         148.5
  2018-08-17 13:29:47     10.3            275.2          39.3           239.5         137.0
  2018-08-17 23:44:00     20.0             90.8         -24.7            18.2        -999.0
Spacecraft : ISS    
         GMT                             Satellite      Satellite     Solar          Solar         Scat ang       
  year-mo-da hr:mn:sc    elevation     azimuth    elevation   azimuth    (bk=180)     
  2018-08-17 08:52:33     27.3            146.1          47.8           140.6         159.0
  2018-08-17 10:28:49     86.3            344.8          53.5           176.8         139.8
  2018-08-17 12:05:28     65.1              4.8          49.2           214.2         116.6
  2018-08-17 13:41:59     56.5            204.3          37.5           242.6         148.4
  2018-08-17 15:17:57     13.3            222.2          22.8           263.6         139.6